sensor_id;sensor_type;location;lat;lon;timestamp;P1;durP1;ratioP1;P2;durP2;ratioP2
28844;SDS011;15976;47.938;7.758;2023-03-14T00:02:14;0.57;;;0.50;;
28844;SDS011;15976;47.938;7.758;2023-03-14T00:04:41;0.60;;;0.60;;
28844;SDS011;15976;47.938;7.758;2023-03-14T00:07:10;0.47;;;0.47;;
28844;SDS011;15976;47.938;7.758;2023-03-14T00:09:37;1.48;;;0.60;;
28844;SDS011;15976;47.938;7.758;2023-03-14T00:12:04;0.43;;;0.43;;
28844;SDS011;15976;47.938;7.758;2023-03-14T00:14:33;0.50;;;0.50;;
28844;SDS011;15976;47.938;7.758;2023-03-14T00:17:00;0.50;;;0.50;;
28844;SDS011;15976;47.938;7.758;2023-03-14T00:19:27;2.42;;;0.60;;
28844;SDS011;15976;47.938;7.758;2023-03-14T00:21:53;1.20;;;0.60;;
28844;SDS011;15976;47.938;7.758;2023-03-14T00:24:20;1.40;;;0.60;;
28844;SDS011;15976;47.938;7.758;2023-03-14T00:26:47;1.75;;;0.85;;
28844;SDS011;15976;47.938;7.758;2023-03-14T00:29:14;0.50;;;0.50;;
28844;SDS011;15976;47.938;7.758;2023-03-14T00:31:44;0.73;;;0.50;;
28844;SDS011;15976;47.938;7.758;2023-03-14T00:34:11;0.90;;;0.73;;
28844;SDS011;15976;47.938;7.758;2023-03-14T00:36:38;0.95;;;0.60;;
28844;SDS011;15976;47.938;7.758;2023-03-14T00:39:04;0.60;;;0.60;;
28844;SDS011;15976;47.938;7.758;2023-03-14T00:41:31;1.15;;;0.50;;
28844;SDS011;15976;47.938;7.758;2023-03-14T00:43:59;1.17;;;0.43;;
28844;SDS011;15976;47.938;7.758;2023-03-14T00:46:26;3.60;;;0.60;;
28844;SDS011;15976;47.938;7.758;2023-03-14T00:48:53;1.38;;;0.50;;
28844;SDS011;15976;47.938;7.758;2023-03-14T00:51:20;0.85;;;0.70;;
28844;SDS011;15976;47.938;7.758;2023-03-14T00:53:47;1.00;;;0.68;;
28844;SDS011;15976;47.938;7.758;2023-03-14T00:56:14;1.35;;;0.88;;
28844;SDS011;15976;47.938;7.758;2023-03-14T00:58:41;2.15;;;0.80;;
28844;SDS011;15976;47.938;7.758;2023-03-14T01:01:13;1.52;;;0.65;;
28844;SDS011;15976;47.938;7.758;2023-03-14T01:03:42;0.82;;;0.60;;
28844;SDS011;15976;47.938;7.758;2023-03-14T01:08:47;1.48;;;0.50;;
28844;SDS011;15976;47.938;7.758;2023-03-14T01:11:15;2.97;;;0.60;;
28844;SDS011;15976;47.938;7.758;2023-03-14T01:13:47;0.63;;;0.60;;
28844;SDS011;15976;47.938;7.758;2023-03-14T01:16:16;0.95;;;0.60;;
28844;SDS011;15976;47.938;7.758;2023-03-14T01:18:44;1.48;;;0.60;;
28844;SDS011;15976;47.938;7.758;2023-03-14T01:21:13;1.20;;;0.77;;
28844;SDS011;15976;47.938;7.758;2023-03-14T01:23:43;1.13;;;0.80;;
28844;SDS011;15976;47.938;7.758;2023-03-14T01:26:11;2.50;;;0.60;;
28844;SDS011;15976;47.938;7.758;2023-03-14T01:28:40;1.83;;;0.82;;
28844;SDS011;15976;47.938;7.758;2023-03-14T01:31:09;3.13;;;0.63;;
28844;SDS011;15976;47.938;7.758;2023-03-14T01:33:37;2.80;;;0.70;;
28844;SDS011;15976;47.938;7.758;2023-03-14T01:36:05;1.15;;;0.60;;
28844;SDS011;15976;47.938;7.758;2023-03-14T01:38:33;1.83;;;0.60;;
28844;SDS011;15976;47.938;7.758;2023-03-14T01:41:02;0.85;;;0.70;;
28844;SDS011;15976;47.938;7.758;2023-03-14T01:43:30;6.05;;;0.95;;
28844;SDS011;15976;47.938;7.758;2023-03-14T01:51:17;2.95;;;0.90;;
28844;SDS011;15976;47.938;7.758;2023-03-14T01:54:17;1.92;;;0.88;;
28844;SDS011;15976;47.938;7.758;2023-03-14T01:57:23;2.97;;;1.00;;
28844;SDS011;15976;47.938;7.758;2023-03-14T02:00:10;1.90;;;0.80;;
28844;SDS011;15976;47.938;7.758;2023-03-14T02:03:09;3.30;;;0.70;;
28844;SDS011;15976;47.938;7.758;2023-03-14T02:05:40;0.95;;;0.70;;
28844;SDS011;15976;47.938;7.758;2023-03-14T02:08:19;3.38;;;0.77;;
28844;SDS011;15976;47.938;7.758;2023-03-14T02:10:50;1.15;;;0.63;;
28844;SDS011;15976;47.938;7.758;2023-03-14T02:13:23;1.50;;;0.50;;
28844;SDS011;15976;47.938;7.758;2023-03-14T02:16:13;3.28;;;1.58;;
28844;SDS011;15976;47.938;7.758;2023-03-14T02:18:55;3.83;;;1.60;;
28844;SDS011;15976;47.938;7.758;2023-03-14T02:24:32;5.28;;;0.70;;
28844;SDS011;15976;47.938;7.758;2023-03-14T02:27:11;2.58;;;0.80;;
28844;SDS011;15976;47.938;7.758;2023-03-14T02:29:54;2.40;;;0.63;;
28844;SDS011;15976;47.938;7.758;2023-03-14T02:32:27;2.75;;;0.70;;
28844;SDS011;15976;47.938;7.758;2023-03-14T02:34:57;0.75;;;0.40;;
28844;SDS011;15976;47.938;7.758;2023-03-14T02:37:35;3.20;;;0.70;;
28844;SDS011;15976;47.938;7.758;2023-03-14T02:40:08;1.70;;;0.60;;
28844;SDS011;15976;47.938;7.758;2023-03-14T02:42:37;1.35;;;0.60;;
28844;SDS011;15976;47.938;7.758;2023-03-14T02:47:37;2.80;;;0.70;;
28844;SDS011;15976;47.938;7.758;2023-03-14T02:50:10;4.45;;;0.68;;
28844;SDS011;15976;47.938;7.758;2023-03-14T02:52:41;1.35;;;0.68;;
28844;SDS011;15976;47.938;7.758;2023-03-14T02:55:09;0.73;;;0.43;;
28844;SDS011;15976;47.938;7.758;2023-03-14T02:57:38;1.42;;;0.80;;
28844;SDS011;15976;47.938;7.758;2023-03-14T03:00:06;1.30;;;0.80;;
28844;SDS011;15976;47.938;7.758;2023-03-14T03:02:36;1.17;;;0.70;;
28844;SDS011;15976;47.938;7.758;2023-03-14T03:05:03;2.25;;;1.00;;
28844;SDS011;15976;47.938;7.758;2023-03-14T03:07:30;4.35;;;0.70;;
28844;SDS011;15976;47.938;7.758;2023-03-14T03:09:58;1.67;;;0.63;;
28844;SDS011;15976;47.938;7.758;2023-03-14T03:12:25;2.17;;;0.85;;
28844;SDS011;15976;47.938;7.758;2023-03-14T03:14:52;1.52;;;0.73;;
28844;SDS011;15976;47.938;7.758;2023-03-14T03:17:19;3.03;;;0.80;;
28844;SDS011;15976;47.938;7.758;2023-03-14T03:19:46;7.30;;;1.10;;
28844;SDS011;15976;47.938;7.758;2023-03-14T03:22:13;1.30;;;0.85;;
28844;SDS011;15976;47.938;7.758;2023-03-14T03:24:40;3.55;;;0.82;;
28844;SDS011;15976;47.938;7.758;2023-03-14T03:27:07;3.13;;;0.90;;
28844;SDS011;15976;47.938;7.758;2023-03-14T03:29:34;3.45;;;0.95;;
28844;SDS011;15976;47.938;7.758;2023-03-14T03:32:01;5.32;;;1.00;;
28844;SDS011;15976;47.938;7.758;2023-03-14T03:34:28;1.58;;;0.60;;
28844;SDS011;15976;47.938;7.758;2023-03-14T03:36:56;2.67;;;0.63;;
28844;SDS011;15976;47.938;7.758;2023-03-14T03:39:26;5.30;;;0.77;;
28844;SDS011;15976;47.938;7.758;2023-03-14T03:41:53;1.75;;;0.73;;
28844;SDS011;15976;47.938;7.758;2023-03-14T03:44:21;1.83;;;0.60;;
28844;SDS011;15976;47.938;7.758;2023-03-14T03:46:50;3.67;;;0.70;;
28844;SDS011;15976;47.938;7.758;2023-03-14T03:49:17;3.58;;;0.70;;
28844;SDS011;15976;47.938;7.758;2023-03-14T03:51:44;2.50;;;0.50;;
28844;SDS011;15976;47.938;7.758;2023-03-14T03:54:12;1.55;;;0.70;;
28844;SDS011;15976;47.938;7.758;2023-03-14T03:56:39;1.13;;;0.75;;
28844;SDS011;15976;47.938;7.758;2023-03-14T03:59:06;3.72;;;1.05;;
28844;SDS011;15976;47.938;7.758;2023-03-14T04:01:33;3.28;;;0.70;;
28844;SDS011;15976;47.938;7.758;2023-03-14T04:04:00;2.63;;;0.63;;
28844;SDS011;15976;47.938;7.758;2023-03-14T04:06:27;0.77;;;0.45;;
28844;SDS011;15976;47.938;7.758;2023-03-14T04:08:57;3.38;;;0.70;;
28844;SDS011;15976;47.938;7.758;2023-03-14T04:11:45;3.30;;;0.80;;
28844;SDS011;15976;47.938;7.758;2023-03-14T04:14:18;4.57;;;0.70;;
28844;SDS011;15976;47.938;7.758;2023-03-14T04:16:46;1.67;;;0.57;;
28844;SDS011;15976;47.938;7.758;2023-03-14T04:19:16;4.20;;;0.65;;
28844;SDS011;15976;47.938;7.758;2023-03-14T04:21:44;2.30;;;0.40;;
28844;SDS011;15976;47.938;7.758;2023-03-14T04:24:13;3.15;;;0.57;;
28844;SDS011;15976;47.938;7.758;2023-03-14T04:26:44;1.52;;;0.45;;
28844;SDS011;15976;47.938;7.758;2023-03-14T04:29:11;1.27;;;0.40;;
28844;SDS011;15976;47.938;7.758;2023-03-14T04:31:40;1.73;;;0.70;;
28844;SDS011;15976;47.938;7.758;2023-03-14T04:34:07;2.42;;;0.70;;
28844;SDS011;15976;47.938;7.758;2023-03-14T04:36:39;2.80;;;0.52;;
28844;SDS011;15976;47.938;7.758;2023-03-14T04:39:12;1.15;;;0.68;;
28844;SDS011;15976;47.938;7.758;2023-03-14T04:41:45;1.23;;;0.38;;
28844;SDS011;15976;47.938;7.758;2023-03-14T04:44:13;1.20;;;0.80;;
28844;SDS011;15976;47.938;7.758;2023-03-14T04:46:40;1.33;;;0.47;;
28844;SDS011;15976;47.938;7.758;2023-03-14T04:49:09;1.27;;;0.50;;
28844;SDS011;15976;47.938;7.758;2023-03-14T04:51:37;1.05;;;0.60;;
28844;SDS011;15976;47.938;7.758;2023-03-14T04:54:04;2.83;;;0.60;;
28844;SDS011;15976;47.938;7.758;2023-03-14T04:56:31;1.17;;;0.32;;
28844;SDS011;15976;47.938;7.758;2023-03-14T04:59:00;0.85;;;0.40;;
28844;SDS011;15976;47.938;7.758;2023-03-14T05:01:28;3.08;;;0.60;;
28844;SDS011;15976;47.938;7.758;2023-03-14T05:04:21;0.90;;;0.50;;
28844;SDS011;15976;47.938;7.758;2023-03-14T05:07:20;2.35;;;0.63;;
28844;SDS011;15976;47.938;7.758;2023-03-14T05:10:06;3.47;;;0.60;;
28844;SDS011;15976;47.938;7.758;2023-03-14T05:12:52;1.77;;;0.60;;
28844;SDS011;15976;47.938;7.758;2023-03-14T05:15:45;1.05;;;0.63;;
28844;SDS011;15976;47.938;7.758;2023-03-14T05:18:33;0.30;;;0.30;;
28844;SDS011;15976;47.938;7.758;2023-03-14T05:21:09;2.42;;;0.73;;
28844;SDS011;15976;47.938;7.758;2023-03-14T05:23:55;1.00;;;0.50;;
28844;SDS011;15976;47.938;7.758;2023-03-14T05:26:42;2.40;;;0.65;;
28844;SDS011;15976;47.938;7.758;2023-03-14T05:29:19;2.28;;;0.50;;
28844;SDS011;15976;47.938;7.758;2023-03-14T05:31:57;1.25;;;0.60;;
28844;SDS011;15976;47.938;7.758;2023-03-14T05:34:43;1.15;;;0.50;;
28844;SDS011;15976;47.938;7.758;2023-03-14T05:37:29;4.57;;;1.45;;
28844;SDS011;15976;47.938;7.758;2023-03-14T05:40:16;1.05;;;0.50;;
28844;SDS011;15976;47.938;7.758;2023-03-14T05:43:16;0.90;;;0.45;;
28844;SDS011;15976;47.938;7.758;2023-03-14T05:46:01;1.20;;;0.50;;
28844;SDS011;15976;47.938;7.758;2023-03-14T05:48:42;2.08;;;0.40;;
28844;SDS011;15976;47.938;7.758;2023-03-14T05:51:29;0.75;;;0.60;;
28844;SDS011;15976;47.938;7.758;2023-03-14T05:54:15;0.80;;;0.35;;
28844;SDS011;15976;47.938;7.758;2023-03-14T05:57:04;0.32;;;0.32;;
28844;SDS011;15976;47.938;7.758;2023-03-14T05:59:44;0.75;;;0.40;;
28844;SDS011;15976;47.938;7.758;2023-03-14T06:02:31;0.90;;;0.50;;
28844;SDS011;15976;47.938;7.758;2023-03-14T06:05:06;0.73;;;0.47;;
28844;SDS011;15976;47.938;7.758;2023-03-14T06:07:34;1.48;;;0.50;;
28844;SDS011;15976;47.938;7.758;2023-03-14T06:10:04;0.95;;;0.50;;
28844;SDS011;15976;47.938;7.758;2023-03-14T06:12:32;3.70;;;0.90;;
28844;SDS011;15976;47.938;7.758;2023-03-14T06:14:59;0.55;;;0.50;;
28844;SDS011;15976;47.938;7.758;2023-03-14T06:17:26;1.27;;;0.43;;
28844;SDS011;15976;47.938;7.758;2023-03-14T06:20:00;11.02;;;5.90;;
28844;SDS011;15976;47.938;7.758;2023-03-14T06:22:29;1.95;;;0.82;;
28844;SDS011;15976;47.938;7.758;2023-03-14T06:24:56;1.67;;;0.57;;
28844;SDS011;15976;47.938;7.758;2023-03-14T06:27:24;1.23;;;0.40;;
28844;SDS011;15976;47.938;7.758;2023-03-14T06:29:54;1.13;;;0.60;;
28844;SDS011;15976;47.938;7.758;2023-03-14T06:32:23;0.70;;;0.60;;
28844;SDS011;15976;47.938;7.758;2023-03-14T06:34:53;1.92;;;0.65;;
28844;SDS011;15976;47.938;7.758;2023-03-14T06:37:20;1.13;;;0.70;;
28844;SDS011;15976;47.938;7.758;2023-03-14T06:39:47;0.73;;;0.50;;
28844;SDS011;15976;47.938;7.758;2023-03-14T06:44:57;0.77;;;0.45;;
28844;SDS011;15976;47.938;7.758;2023-03-14T06:47:25;0.52;;;0.32;;
28844;SDS011;15976;47.938;7.758;2023-03-14T06:49:52;1.30;;;0.30;;
28844;SDS011;15976;47.938;7.758;2023-03-14T06:52:20;0.60;;;0.40;;
28844;SDS011;15976;47.938;7.758;2023-03-14T06:54:47;1.55;;;0.50;;
28844;SDS011;15976;47.938;7.758;2023-03-14T06:57:15;1.15;;;0.70;;
28844;SDS011;15976;47.938;7.758;2023-03-14T06:59:42;0.55;;;0.55;;
28844;SDS011;15976;47.938;7.758;2023-03-14T07:02:10;1.30;;;0.55;;
28844;SDS011;15976;47.938;7.758;2023-03-14T07:04:40;1.23;;;0.50;;
28844;SDS011;15976;47.938;7.758;2023-03-14T07:07:09;0.63;;;0.30;;
28844;SDS011;15976;47.938;7.758;2023-03-14T07:09:36;1.33;;;0.50;;
28844;SDS011;15976;47.938;7.758;2023-03-14T07:12:03;0.50;;;0.40;;
28844;SDS011;15976;47.938;7.758;2023-03-14T07:14:31;1.02;;;0.43;;
28844;SDS011;15976;47.938;7.758;2023-03-14T07:16:59;2.13;;;0.80;;
28844;SDS011;15976;47.938;7.758;2023-03-14T07:19:26;0.50;;;0.50;;
28844;SDS011;15976;47.938;7.758;2023-03-14T07:21:53;1.02;;;0.70;;
28844;SDS011;15976;47.938;7.758;2023-03-14T07:24:23;0.35;;;0.32;;
28844;SDS011;15976;47.938;7.758;2023-03-14T07:26:50;0.60;;;0.43;;
28844;SDS011;15976;47.938;7.758;2023-03-14T07:29:17;0.43;;;0.40;;
28844;SDS011;15976;47.938;7.758;2023-03-14T07:31:44;0.75;;;0.30;;
28844;SDS011;15976;47.938;7.758;2023-03-14T07:34:16;0.93;;;0.77;;
28844;SDS011;15976;47.938;7.758;2023-03-14T07:36:44;1.40;;;0.40;;
28844;SDS011;15976;47.938;7.758;2023-03-14T07:39:11;0.50;;;0.40;;
28844;SDS011;15976;47.938;7.758;2023-03-14T07:41:58;1.25;;;0.60;;
28844;SDS011;15976;47.938;7.758;2023-03-14T07:44:44;1.00;;;0.55;;
28844;SDS011;15976;47.938;7.758;2023-03-14T07:47:11;1.17;;;0.75;;
28844;SDS011;15976;47.938;7.758;2023-03-14T07:49:38;2.63;;;0.60;;
28844;SDS011;15976;47.938;7.758;2023-03-14T07:52:05;0.63;;;0.50;;
28844;SDS011;15976;47.938;7.758;2023-03-14T07:54:32;0.30;;;0.30;;
28844;SDS011;15976;47.938;7.758;2023-03-14T07:56:59;0.43;;;0.40;;
28844;SDS011;15976;47.938;7.758;2023-03-14T07:59:27;0.95;;;0.50;;
28844;SDS011;15976;47.938;7.758;2023-03-14T08:01:54;1.02;;;0.40;;
28844;SDS011;15976;47.938;7.758;2023-03-14T08:04:21;1.35;;;0.50;;
28844;SDS011;15976;47.938;7.758;2023-03-14T08:06:48;0.98;;;0.50;;
28844;SDS011;15976;47.938;7.758;2023-03-14T08:09:15;1.95;;;0.50;;
28844;SDS011;15976;47.938;7.758;2023-03-14T08:11:42;2.47;;;2.28;;
28844;SDS011;15976;47.938;7.758;2023-03-14T08:14:08;0.98;;;0.60;;
28844;SDS011;15976;47.938;7.758;2023-03-14T08:16:37;0.40;;;0.40;;
28844;SDS011;15976;47.938;7.758;2023-03-14T08:19:04;1.08;;;0.50;;
28844;SDS011;15976;47.938;7.758;2023-03-14T08:21:31;1.30;;;0.93;;
28844;SDS011;15976;47.938;7.758;2023-03-14T08:23:58;1.10;;;0.80;;
28844;SDS011;15976;47.938;7.758;2023-03-14T08:26:25;1.23;;;0.60;;
28844;SDS011;15976;47.938;7.758;2023-03-14T08:28:52;0.82;;;0.50;;
28844;SDS011;15976;47.938;7.758;2023-03-14T08:31:19;6.22;;;4.95;;
28844;SDS011;15976;47.938;7.758;2023-03-14T08:33:46;2.03;;;0.90;;
28844;SDS011;15976;47.938;7.758;2023-03-14T08:36:13;4.22;;;1.10;;
28844;SDS011;15976;47.938;7.758;2023-03-14T08:38:40;1.50;;;1.05;;
28844;SDS011;15976;47.938;7.758;2023-03-14T08:41:09;5.00;;;3.50;;
28844;SDS011;15976;47.938;7.758;2023-03-14T08:43:37;2.25;;;1.38;;
28844;SDS011;15976;47.938;7.758;2023-03-14T08:46:04;3.05;;;1.77;;
28844;SDS011;15976;47.938;7.758;2023-03-14T08:48:31;3.20;;;0.95;;
28844;SDS011;15976;47.938;7.758;2023-03-14T08:51:11;3.75;;;1.63;;
28844;SDS011;15976;47.938;7.758;2023-03-14T08:53:43;3.92;;;2.40;;
28844;SDS011;15976;47.938;7.758;2023-03-14T08:56:10;2.40;;;1.50;;
28844;SDS011;15976;47.938;7.758;2023-03-14T08:58:37;1.73;;;1.40;;
28844;SDS011;15976;47.938;7.758;2023-03-14T09:01:05;2.80;;;1.40;;
28844;SDS011;15976;47.938;7.758;2023-03-14T09:03:32;4.18;;;1.40;;
28844;SDS011;15976;47.938;7.758;2023-03-14T09:06:06;4.13;;;1.92;;
28844;SDS011;15976;47.938;7.758;2023-03-14T09:08:35;1.00;;;0.90;;
28844;SDS011;15976;47.938;7.758;2023-03-14T09:11:06;0.50;;;0.50;;
28844;SDS011;15976;47.938;7.758;2023-03-14T09:13:34;0.63;;;0.63;;
28844;SDS011;15976;47.938;7.758;2023-03-14T09:16:02;1.17;;;0.70;;
28844;SDS011;15976;47.938;7.758;2023-03-14T09:18:29;1.02;;;0.57;;
28844;SDS011;15976;47.938;7.758;2023-03-14T09:20:56;1.67;;;0.85;;
28844;SDS011;15976;47.938;7.758;2023-03-14T09:23:23;1.42;;;0.52;;
28844;SDS011;15976;47.938;7.758;2023-03-14T09:25:54;0.95;;;0.50;;
28844;SDS011;15976;47.938;7.758;2023-03-14T09:28:22;2.43;;;0.80;;
28844;SDS011;15976;47.938;7.758;2023-03-14T09:30:48;0.90;;;0.40;;
28844;SDS011;15976;47.938;7.758;2023-03-14T09:33:16;0.77;;;0.40;;
28844;SDS011;15976;47.938;7.758;2023-03-14T09:35:43;0.43;;;0.30;;
28844;SDS011;15976;47.938;7.758;2023-03-14T09:38:10;0.35;;;0.35;;
28844;SDS011;15976;47.938;7.758;2023-03-14T09:40:38;2.78;;;0.60;;
28844;SDS011;15976;47.938;7.758;2023-03-14T09:43:09;0.65;;;0.52;;
28844;SDS011;15976;47.938;7.758;2023-03-14T09:45:41;0.73;;;0.40;;
28844;SDS011;15976;47.938;7.758;2023-03-14T09:48:16;1.05;;;0.55;;
28844;SDS011;15976;47.938;7.758;2023-03-14T09:50:50;0.45;;;0.45;;
28844;SDS011;15976;47.938;7.758;2023-03-14T09:56:20;0.38;;;0.38;;
28844;SDS011;15976;47.938;7.758;2023-03-14T09:59:00;1.00;;;0.30;;
28844;SDS011;15976;47.938;7.758;2023-03-14T10:01:30;0.85;;;0.40;;
28844;SDS011;15976;47.938;7.758;2023-03-14T10:04:06;0.20;;;0.20;;
28844;SDS011;15976;47.938;7.758;2023-03-14T10:06:40;0.57;;;0.30;;
28844;SDS011;15976;47.938;7.758;2023-03-14T10:09:10;0.13;;;0.13;;
28844;SDS011;15976;47.938;7.758;2023-03-14T10:11:52;0.30;;;0.30;;
28844;SDS011;15976;47.938;7.758;2023-03-14T10:14:29;0.28;;;0.28;;
28844;SDS011;15976;47.938;7.758;2023-03-14T10:17:06;0.20;;;0.20;;
28844;SDS011;15976;47.938;7.758;2023-03-14T10:19:37;0.20;;;0.20;;
28844;SDS011;15976;47.938;7.758;2023-03-14T10:22:16;0.30;;;0.30;;
28844;SDS011;15976;47.938;7.758;2023-03-14T10:24:51;0.28;;;0.28;;
28844;SDS011;15976;47.938;7.758;2023-03-14T10:27:21;0.32;;;0.32;;
28844;SDS011;15976;47.938;7.758;2023-03-14T10:30:00;0.30;;;0.30;;
28844;SDS011;15976;47.938;7.758;2023-03-14T10:32:34;0.30;;;0.30;;
28844;SDS011;15976;47.938;7.758;2023-03-14T10:40:24;0.40;;;0.40;;
28844;SDS011;15976;47.938;7.758;2023-03-14T10:45:32;0.30;;;0.30;;
28844;SDS011;15976;47.938;7.758;2023-03-14T10:48:06;1.27;;;0.40;;
28844;SDS011;15976;47.938;7.758;2023-03-14T10:50:49;0.30;;;0.30;;
28844;SDS011;15976;47.938;7.758;2023-03-14T10:53:21;0.60;;;0.40;;
28844;SDS011;15976;47.938;7.758;2023-03-14T10:55:52;0.45;;;0.40;;
28844;SDS011;15976;47.938;7.758;2023-03-14T10:58:26;0.30;;;0.30;;
28844;SDS011;15976;47.938;7.758;2023-03-14T11:23:14;0.30;;;0.30;;
28844;SDS011;15976;47.938;7.758;2023-03-14T11:30:52;1.20;;;0.70;;
28844;SDS011;15976;47.938;7.758;2023-03-14T11:33:22;0.52;;;0.52;;
28844;SDS011;15976;47.938;7.758;2023-03-14T11:41:27;1.13;;;0.40;;
28844;SDS011;15976;47.938;7.758;2023-03-14T11:43:59;0.40;;;0.40;;
28844;SDS011;15976;47.938;7.758;2023-03-14T11:51:56;0.40;;;0.40;;
28844;SDS011;15976;47.938;7.758;2023-03-14T11:57:20;0.40;;;0.35;;
28844;SDS011;15976;47.938;7.758;2023-03-14T11:59:52;2.25;;;0.50;;
28844;SDS011;15976;47.938;7.758;2023-03-14T12:07:36;0.65;;;0.52;;
28844;SDS011;15976;47.938;7.758;2023-03-14T12:10:08;1.27;;;0.70;;
28844;SDS011;15976;47.938;7.758;2023-03-14T12:12:36;3.55;;;1.33;;
28844;SDS011;15976;47.938;7.758;2023-03-14T12:15:03;0.95;;;0.65;;
28844;SDS011;15976;47.938;7.758;2023-03-14T12:17:35;0.40;;;0.40;;
28844;SDS011;15976;47.938;7.758;2023-03-14T12:22:42;1.58;;;0.80;;
28844;SDS011;15976;47.938;7.758;2023-03-14T12:25:21;2.05;;;0.85;;
28844;SDS011;15976;47.938;7.758;2023-03-14T12:30:37;1.25;;;0.60;;
28844;SDS011;15976;47.938;7.758;2023-03-14T12:35:47;0.52;;;0.47;;
28844;SDS011;15976;47.938;7.758;2023-03-14T12:43:51;2.20;;;0.70;;
28844;SDS011;15976;47.938;7.758;2023-03-14T12:51:29;1.17;;;0.70;;
28844;SDS011;15976;47.938;7.758;2023-03-14T12:57:03;1.95;;;0.80;;
28844;SDS011;15976;47.938;7.758;2023-03-14T13:02:25;0.98;;;0.70;;
28844;SDS011;15976;47.938;7.758;2023-03-14T13:08:14;0.70;;;0.60;;
28844;SDS011;15976;47.938;7.758;2023-03-14T13:10:32;1.52;;;0.70;;
28844;SDS011;15976;47.938;7.758;2023-03-14T13:13:22;1.27;;;0.75;;
28844;SDS011;15976;47.938;7.758;2023-03-14T13:15:57;0.60;;;0.60;;
28844;SDS011;15976;47.938;7.758;2023-03-14T13:18:36;1.33;;;0.70;;
28844;SDS011;15976;47.938;7.758;2023-03-14T13:26:32;0.60;;;0.60;;
28844;SDS011;15976;47.938;7.758;2023-03-14T13:29:19;0.63;;;0.63;;
28844;SDS011;15976;47.938;7.758;2023-03-14T13:31:50;2.63;;;0.73;;
28844;SDS011;15976;47.938;7.758;2023-03-14T13:34:33;9.23;;;1.52;;
28844;SDS011;15976;47.938;7.758;2023-03-14T13:37:01;1.02;;;0.70;;
28844;SDS011;15976;47.938;7.758;2023-03-14T13:39:28;4.65;;;2.22;;
28844;SDS011;15976;47.938;7.758;2023-03-14T13:41:59;3.20;;;1.20;;
28844;SDS011;15976;47.938;7.758;2023-03-14T13:44:31;2.03;;;0.80;;
28844;SDS011;15976;47.938;7.758;2023-03-14T13:47:09;4.80;;;1.10;;
28844;SDS011;15976;47.938;7.758;2023-03-14T13:49:40;1.75;;;1.08;;
28844;SDS011;15976;47.938;7.758;2023-03-14T13:52:28;3.10;;;1.40;;
28844;SDS011;15976;47.938;7.758;2023-03-14T13:54:57;3.97;;;1.83;;
28844;SDS011;15976;47.938;7.758;2023-03-14T13:57:26;3.97;;;1.65;;
28844;SDS011;15976;47.938;7.758;2023-03-14T13:59:58;2.83;;;1.85;;
28844;SDS011;15976;47.938;7.758;2023-03-14T14:02:33;2.85;;;1.10;;
28844;SDS011;15976;47.938;7.758;2023-03-14T14:05:03;2.35;;;1.20;;
28844;SDS011;15976;47.938;7.758;2023-03-14T14:07:31;3.88;;;1.00;;
28844;SDS011;15976;47.938;7.758;2023-03-14T14:09:58;4.60;;;1.27;;
28844;SDS011;15976;47.938;7.758;2023-03-14T14:12:29;2.40;;;1.45;;
28844;SDS011;15976;47.938;7.758;2023-03-14T14:15:07;2.05;;;1.10;;
28844;SDS011;15976;47.938;7.758;2023-03-14T14:17:38;2.15;;;0.90;;
28844;SDS011;15976;47.938;7.758;2023-03-14T14:22:48;3.35;;;1.20;;
28844;SDS011;15976;47.938;7.758;2023-03-14T14:25:16;4.07;;;1.73;;
28844;SDS011;15976;47.938;7.758;2023-03-14T14:27:47;3.30;;;1.85;;
28844;SDS011;15976;47.938;7.758;2023-03-14T14:32:47;6.93;;;2.40;;
28844;SDS011;15976;47.938;7.758;2023-03-14T14:35:32;6.10;;;1.98;;
28844;SDS011;15976;47.938;7.758;2023-03-14T14:38:00;6.55;;;1.63;;
28844;SDS011;15976;47.938;7.758;2023-03-14T14:40:29;6.05;;;1.80;;
28844;SDS011;15976;47.938;7.758;2023-03-14T14:43:03;5.00;;;2.00;;
28844;SDS011;15976;47.938;7.758;2023-03-14T14:45:33;3.05;;;1.38;;
28844;SDS011;15976;47.938;7.758;2023-03-14T14:50:29;3.10;;;1.10;;
28844;SDS011;15976;47.938;7.758;2023-03-14T14:52:59;5.57;;;2.38;;
28844;SDS011;15976;47.938;7.758;2023-03-14T14:55:34;7.80;;;2.25;;
28844;SDS011;15976;47.938;7.758;2023-03-14T15:00:52;6.43;;;1.77;;
28844;SDS011;15976;47.938;7.758;2023-03-14T15:03:26;5.82;;;2.10;;
28844;SDS011;15976;47.938;7.758;2023-03-14T15:05:55;6.32;;;2.42;;
28844;SDS011;15976;47.938;7.758;2023-03-14T15:08:23;4.20;;;1.83;;
28844;SDS011;15976;47.938;7.758;2023-03-14T15:10:52;3.42;;;1.25;;
28844;SDS011;15976;47.938;7.758;2023-03-14T15:13:20;14.90;;;8.73;;
28844;SDS011;15976;47.938;7.758;2023-03-14T15:15:49;16.00;;;8.60;;
28844;SDS011;15976;47.938;7.758;2023-03-14T15:18:23;15.75;;;9.70;;
28844;SDS011;15976;47.938;7.758;2023-03-14T15:20:52;12.55;;;7.85;;
28844;SDS011;15976;47.938;7.758;2023-03-14T15:23:20;7.85;;;4.18;;
28844;SDS011;15976;47.938;7.758;2023-03-14T15:25:47;13.73;;;7.78;;
28844;SDS011;15976;47.938;7.758;2023-03-14T15:28:28;17.48;;;8.32;;
28844;SDS011;15976;47.938;7.758;2023-03-14T15:30:57;10.68;;;5.68;;
28844;SDS011;15976;47.938;7.758;2023-03-14T15:33:25;5.00;;;3.05;;
28844;SDS011;15976;47.938;7.758;2023-03-14T15:35:53;5.07;;;3.53;;
28844;SDS011;15976;47.938;7.758;2023-03-14T15:38:20;5.60;;;2.05;;
28844;SDS011;15976;47.938;7.758;2023-03-14T15:40:50;4.90;;;2.03;;
28844;SDS011;15976;47.938;7.758;2023-03-14T15:43:18;13.88;;;6.28;;
28844;SDS011;15976;47.938;7.758;2023-03-14T15:45:45;4.70;;;2.20;;
28844;SDS011;15976;47.938;7.758;2023-03-14T15:48:14;3.38;;;1.90;;
28844;SDS011;15976;47.938;7.758;2023-03-14T15:50:43;3.92;;;2.17;;
28844;SDS011;15976;47.938;7.758;2023-03-14T15:53:10;4.13;;;1.40;;
28844;SDS011;15976;47.938;7.758;2023-03-14T15:55:37;3.33;;;1.63;;
28844;SDS011;15976;47.938;7.758;2023-03-14T15:58:05;3.50;;;1.67;;
28844;SDS011;15976;47.938;7.758;2023-03-14T16:00:32;3.95;;;1.92;;
28844;SDS011;15976;47.938;7.758;2023-03-14T16:02:59;4.95;;;2.20;;
28844;SDS011;15976;47.938;7.758;2023-03-14T16:05:26;5.30;;;3.25;;
28844;SDS011;15976;47.938;7.758;2023-03-14T16:07:53;6.60;;;3.88;;
28844;SDS011;15976;47.938;7.758;2023-03-14T16:10:19;4.47;;;2.45;;
28844;SDS011;15976;47.938;7.758;2023-03-14T16:12:46;5.30;;;2.58;;
28844;SDS011;15976;47.938;7.758;2023-03-14T16:15:14;2.58;;;1.63;;
28844;SDS011;15976;47.938;7.758;2023-03-14T16:17:41;1.40;;;1.00;;
28844;SDS011;15976;47.938;7.758;2023-03-14T16:20:09;4.03;;;1.27;;
28844;SDS011;15976;47.938;7.758;2023-03-14T16:22:37;3.42;;;1.40;;
28844;SDS011;15976;47.938;7.758;2023-03-14T16:25:05;3.25;;;1.35;;
28844;SDS011;15976;47.938;7.758;2023-03-14T16:27:33;2.42;;;1.27;;
28844;SDS011;15976;47.938;7.758;2023-03-14T16:30:00;4.15;;;1.75;;
28844;SDS011;15976;47.938;7.758;2023-03-14T16:32:27;5.40;;;2.70;;
28844;SDS011;15976;47.938;7.758;2023-03-14T16:34:54;5.55;;;3.72;;
28844;SDS011;15976;47.938;7.758;2023-03-14T16:37:22;5.55;;;2.30;;
28844;SDS011;15976;47.938;7.758;2023-03-14T16:39:50;3.15;;;1.75;;
28844;SDS011;15976;47.938;7.758;2023-03-14T16:42:36;3.55;;;1.85;;
28844;SDS011;15976;47.938;7.758;2023-03-14T16:45:20;2.42;;;1.10;;
28844;SDS011;15976;47.938;7.758;2023-03-14T16:47:47;2.17;;;1.35;;
28844;SDS011;15976;47.938;7.758;2023-03-14T16:50:15;1.45;;;0.90;;
28844;SDS011;15976;47.938;7.758;2023-03-14T16:52:42;3.67;;;1.15;;
28844;SDS011;15976;47.938;7.758;2023-03-14T16:55:12;2.55;;;1.15;;
28844;SDS011;15976;47.938;7.758;2023-03-14T16:57:39;2.08;;;1.08;;
28844;SDS011;15976;47.938;7.758;2023-03-14T17:00:06;2.67;;;1.10;;
28844;SDS011;15976;47.938;7.758;2023-03-14T17:02:37;3.85;;;1.63;;
28844;SDS011;15976;47.938;7.758;2023-03-14T17:05:04;6.28;;;3.10;;
28844;SDS011;15976;47.938;7.758;2023-03-14T17:07:31;3.53;;;2.25;;
28844;SDS011;15976;47.938;7.758;2023-03-14T17:09:58;4.43;;;2.03;;